バンダルスリブガワン の空港の天気 - METARとTAF

ブルネイ国際空港 ( WBSB / BWN ) - ブルネイ バンダルスリブガワン
飛行場実況気象(Metar)
観測時間07/18 10:30 BNT (07/18 02:30 UTC)
風向・風速南 4m/s
視程8000m
天気現象
少しの雲 雲底高度 490m
全天の8割程度の雲 雲底高度 9140m
気温33℃
湿度63%
気圧1008hPa
METARWBSB 180230Z 18007KT 8000 FEW016 BKN300 33/25 Q1008 NOSIG
過去の天気等 Google飛行場航空写真 Wunderground天気予報

過去48時間のMETAR

飛行場予報(TAF)
発表時間: 7/18 07:00 BNT (7/17 23:00 UTC)
予報対象時間: 18日8時 BNT ~ 19日14時 BNT
風向・風速南南西 2m/s
視程7000m
少しの雲 雲底高度 460m
18日12時 BNT ~ 18日14時 BNT に徐々に
風向・風速西 5m/s
少しの雲 雲底高度 490m
TAF WBSB 172300Z 1800/1906 20003KT 7000 FEW015
BECMG 1804/1806 26010KT FEW016